sensor_id;sensor_type;location;lat;lon;timestamp;pressure;altitude;pressure_sealevel;temperature;humidity
63321;BME280;49449;48.800;9.534;2023-01-01T00:01:45;98853.28;;;9.98;46.12
63321;BME280;49449;48.800;9.534;2023-01-01T00:04:14;98851.22;;;10.00;45.96
63321;BME280;49449;48.800;9.534;2023-01-01T00:06:42;98859.69;;;10.09;45.77
63321;BME280;49449;48.800;9.534;2023-01-01T00:09:11;98846.28;;;10.11;45.78
63321;BME280;49449;48.800;9.534;2023-01-01T00:11:56;98853.63;;;10.09;45.76
63321;BME280;49449;48.800;9.534;2023-01-01T00:14:24;98855.22;;;10.10;45.54
63321;BME280;49449;48.800;9.534;2023-01-01T00:16:54;98856.13;;;9.97;45.70
63321;BME280;49449;48.800;9.534;2023-01-01T00:19:22;98854.09;;;9.99;45.56
63321;BME280;49449;48.800;9.534;2023-01-01T00:21:50;98871.56;;;10.00;45.23
63321;BME280;49449;48.800;9.534;2023-01-01T00:24:18;98864.31;;;9.89;45.83
63321;BME280;49449;48.800;9.534;2023-01-01T00:26:45;98867.13;;;9.94;45.80
63321;BME280;49449;48.800;9.534;2023-01-01T00:29:13;98864.44;;;10.00;45.82
63321;BME280;49449;48.800;9.534;2023-01-01T00:31:41;98862.97;;;10.04;45.78
63321;BME280;49449;48.800;9.534;2023-01-01T00:34:10;98854.69;;;10.01;45.61
63321;BME280;49449;48.800;9.534;2023-01-01T00:36:38;98855.06;;;10.04;45.78
63321;BME280;49449;48.800;9.534;2023-01-01T00:39:05;98852.88;;;10.01;45.46
63321;BME280;49449;48.800;9.534;2023-01-01T00:41:33;98860.56;;;10.03;45.13
63321;BME280;49449;48.800;9.534;2023-01-01T00:44:00;98859.97;;;10.26;44.69
63321;BME280;49449;48.800;9.534;2023-01-01T00:46:28;98845.38;;;10.42;43.90
63321;BME280;49449;48.800;9.534;2023-01-01T00:48:56;98850.22;;;10.82;43.65
63321;BME280;49449;48.800;9.534;2023-01-01T00:51:25;98839.81;;;11.06;43.13
63321;BME280;49449;48.800;9.534;2023-01-01T00:53:54;98839.59;;;11.07;41.99
63321;BME280;49449;48.800;9.534;2023-01-01T00:56:22;98847.25;;;11.27;42.08
63321;BME280;49449;48.800;9.534;2023-01-01T00:58:50;98850.88;;;11.45;42.31
63321;BME280;49449;48.800;9.534;2023-01-01T01:01:17;98852.72;;;11.44;41.63
63321;BME280;49449;48.800;9.534;2023-01-01T01:03:45;98854.94;;;11.59;41.51
63321;BME280;49449;48.800;9.534;2023-01-01T01:06:15;98857.13;;;11.74;43.20
63321;BME280;49449;48.800;9.534;2023-01-01T01:08:45;98857.75;;;11.76;42.96
63321;BME280;49449;48.800;9.534;2023-01-01T01:11:15;98856.56;;;11.72;42.57
63321;BME280;49449;48.800;9.534;2023-01-01T01:13:44;98852.19;;;11.66;42.22
63321;BME280;49449;48.800;9.534;2023-01-01T01:16:15;98844.56;;;11.57;42.03
63321;BME280;49449;48.800;9.534;2023-01-01T01:18:43;98847.53;;;11.49;42.03
63321;BME280;49449;48.800;9.534;2023-01-01T01:21:14;98847.19;;;11.46;42.10
63321;BME280;49449;48.800;9.534;2023-01-01T01:23:44;98845.59;;;11.45;42.54
63321;BME280;49449;48.800;9.534;2023-01-01T01:26:13;98848.66;;;11.42;42.46
63321;BME280;49449;48.800;9.534;2023-01-01T01:28:43;98844.44;;;11.41;42.24
63321;BME280;49449;48.800;9.534;2023-01-01T01:31:14;98840.81;;;11.35;42.56
63321;BME280;49449;48.800;9.534;2023-01-01T01:33:43;98839.63;;;11.19;42.45
63321;BME280;49449;48.800;9.534;2023-01-01T01:36:11;98842.63;;;11.23;42.72
63321;BME280;49449;48.800;9.534;2023-01-01T01:38:39;98847.97;;;11.04;42.51
63321;BME280;49449;48.800;9.534;2023-01-01T01:41:09;98845.44;;;11.09;43.02
63321;BME280;49449;48.800;9.534;2023-01-01T01:43:54;98847.53;;;11.07;42.58
63321;BME280;49449;48.800;9.534;2023-01-01T01:46:31;98850.16;;;11.07;42.39
63321;BME280;49449;48.800;9.534;2023-01-01T01:49:03;98849.88;;;10.97;42.35
63321;BME280;49449;48.800;9.534;2023-01-01T01:51:33;98858.09;;;10.89;42.45
63321;BME280;49449;48.800;9.534;2023-01-01T01:54:04;98850.78;;;10.84;42.67
63321;BME280;49449;48.800;9.534;2023-01-01T01:56:40;98839.63;;;10.82;43.04
63321;BME280;49449;48.800;9.534;2023-01-01T01:59:09;98839.16;;;10.92;42.94
63321;BME280;49449;48.800;9.534;2023-01-01T02:01:37;98840.09;;;10.97;42.89
63321;BME280;49449;48.800;9.534;2023-01-01T02:04:05;98835.63;;;10.98;42.90
63321;BME280;49449;48.800;9.534;2023-01-01T02:06:34;98839.88;;;10.99;43.02
63321;BME280;49449;48.800;9.534;2023-01-01T02:09:03;98848.59;;;10.99;42.82
63321;BME280;49449;48.800;9.534;2023-01-01T02:11:31;98841.88;;;11.04;42.94
63321;BME280;49449;48.800;9.534;2023-01-01T02:14:01;98850.38;;;11.06;42.79
63321;BME280;49449;48.800;9.534;2023-01-01T02:16:36;98849.16;;;10.90;42.87
63321;BME280;49449;48.800;9.534;2023-01-01T02:19:11;98850.97;;;10.89;43.01
63321;BME280;49449;48.800;9.534;2023-01-01T02:21:54;98849.72;;;10.92;42.77
63321;BME280;49449;48.800;9.534;2023-01-01T02:24:42;98855.97;;;10.97;42.80
63321;BME280;49449;48.800;9.534;2023-01-01T02:27:22;98847.00;;;10.98;43.64
63321;BME280;49449;48.800;9.534;2023-01-01T02:29:59;98844.81;;;10.95;43.12
63321;BME280;49449;48.800;9.534;2023-01-01T02:32:33;98852.31;;;10.98;43.00
63321;BME280;49449;48.800;9.534;2023-01-01T02:35:04;98852.66;;;11.02;42.88
63321;BME280;49449;48.800;9.534;2023-01-01T02:37:49;98864.78;;;10.91;43.30
63321;BME280;49449;48.800;9.534;2023-01-01T02:40:20;98865.75;;;10.97;43.00
63321;BME280;49449;48.800;9.534;2023-01-01T02:42:49;98868.88;;;10.87;42.75
63321;BME280;49449;48.800;9.534;2023-01-01T02:45:20;98867.75;;;10.76;43.82
63321;BME280;49449;48.800;9.534;2023-01-01T02:47:48;98858.13;;;10.82;43.10
63321;BME280;49449;48.800;9.534;2023-01-01T02:50:18;98857.72;;;10.85;43.17
63321;BME280;49449;48.800;9.534;2023-01-01T02:52:55;98858.72;;;10.84;43.01
63321;BME280;49449;48.800;9.534;2023-01-01T02:55:35;98856.53;;;10.81;42.86
63321;BME280;49449;48.800;9.534;2023-01-01T02:58:11;98858.97;;;10.83;43.22
63321;BME280;49449;48.800;9.534;2023-01-01T03:01:06;98855.97;;;10.79;44.13
63321;BME280;49449;48.800;9.534;2023-01-01T03:03:38;98869.28;;;10.84;44.05
63321;BME280;49449;48.800;9.534;2023-01-01T03:06:14;98869.09;;;10.86;43.41
63321;BME280;49449;48.800;9.534;2023-01-01T03:09:00;98870.91;;;10.85;43.75
63321;BME280;49449;48.800;9.534;2023-01-01T03:11:35;98876.44;;;10.84;43.28
63321;BME280;49449;48.800;9.534;2023-01-01T03:14:09;98881.09;;;10.88;42.74
63321;BME280;49449;48.800;9.534;2023-01-01T03:16:44;98867.13;;;10.81;42.75
63321;BME280;49449;48.800;9.534;2023-01-01T03:19:15;98864.91;;;10.78;42.82
63321;BME280;49449;48.800;9.534;2023-01-01T03:21:49;98870.41;;;10.76;42.80
63321;BME280;49449;48.800;9.534;2023-01-01T03:24:20;98874.47;;;10.79;42.79
63321;BME280;49449;48.800;9.534;2023-01-01T03:26:53;98863.06;;;10.78;43.12
63321;BME280;49449;48.800;9.534;2023-01-01T03:29:22;98861.84;;;10.81;43.25
63321;BME280;49449;48.800;9.534;2023-01-01T03:31:54;98868.88;;;10.87;42.83
63321;BME280;49449;48.800;9.534;2023-01-01T03:34:28;98863.44;;;10.82;42.95
63321;BME280;49449;48.800;9.534;2023-01-01T03:37:00;98860.41;;;10.78;43.45
63321;BME280;49449;48.800;9.534;2023-01-01T03:39:33;98876.94;;;10.74;44.23
63321;BME280;49449;48.800;9.534;2023-01-01T03:42:10;98880.91;;;10.83;43.20
63321;BME280;49449;48.800;9.534;2023-01-01T03:44:44;98881.09;;;10.88;43.19
63321;BME280;49449;48.800;9.534;2023-01-01T03:47:14;98880.75;;;10.78;43.09
63321;BME280;49449;48.800;9.534;2023-01-01T03:49:43;98897.63;;;10.77;43.59
63321;BME280;49449;48.800;9.534;2023-01-01T03:52:22;98892.69;;;10.87;43.21
63321;BME280;49449;48.800;9.534;2023-01-01T03:55:00;98900.66;;;10.80;43.28
63321;BME280;49449;48.800;9.534;2023-01-01T03:57:34;98909.03;;;10.77;42.60
63321;BME280;49449;48.800;9.534;2023-01-01T04:00:06;98900.16;;;10.72;42.57
63321;BME280;49449;48.800;9.534;2023-01-01T04:02:41;98903.00;;;10.70;42.58
63321;BME280;49449;48.800;9.534;2023-01-01T04:05:11;98901.75;;;10.73;42.53
63321;BME280;49449;48.800;9.534;2023-01-01T04:07:40;98900.28;;;10.77;42.96
63321;BME280;49449;48.800;9.534;2023-01-01T04:10:09;98896.63;;;10.78;42.71
63321;BME280;49449;48.800;9.534;2023-01-01T04:12:45;98891.81;;;10.68;42.11
63321;BME280;49449;48.800;9.534;2023-01-01T04:15:14;98896.69;;;10.71;42.82
63321;BME280;49449;48.800;9.534;2023-01-01T04:17:43;98899.53;;;10.70;42.82
63321;BME280;49449;48.800;9.534;2023-01-01T04:20:11;98895.59;;;10.79;42.39
63321;BME280;49449;48.800;9.534;2023-01-01T04:22:40;98891.28;;;10.85;42.44
63321;BME280;49449;48.800;9.534;2023-01-01T04:25:08;98898.84;;;10.81;42.33
63321;BME280;49449;48.800;9.534;2023-01-01T04:27:37;98895.97;;;11.01;41.63
63321;BME280;49449;48.800;9.534;2023-01-01T04:30:07;98894.00;;;11.15;41.90
63321;BME280;49449;48.800;9.534;2023-01-01T04:32:35;98891.28;;;11.22;40.93
63321;BME280;49449;48.800;9.534;2023-01-01T04:35:06;98897.28;;;11.29;41.22
63321;BME280;49449;48.800;9.534;2023-01-01T04:37:35;98890.81;;;11.25;41.32
63321;BME280;49449;48.800;9.534;2023-01-01T04:40:03;98890.69;;;11.50;41.53
63321;BME280;49449;48.800;9.534;2023-01-01T04:42:31;98881.53;;;11.64;40.63
63321;BME280;49449;48.800;9.534;2023-01-01T04:44:59;98887.50;;;11.60;40.55
63321;BME280;49449;48.800;9.534;2023-01-01T04:47:26;98876.91;;;11.60;39.97
63321;BME280;49449;48.800;9.534;2023-01-01T04:49:54;98888.81;;;11.69;40.16
63321;BME280;49449;48.800;9.534;2023-01-01T04:52:23;98880.72;;;11.64;40.25
63321;BME280;49449;48.800;9.534;2023-01-01T04:54:51;98891.06;;;11.65;40.18
63321;BME280;49449;48.800;9.534;2023-01-01T04:57:19;98892.97;;;11.76;39.86
63321;BME280;49449;48.800;9.534;2023-01-01T04:59:46;98885.19;;;11.63;39.96
63321;BME280;49449;48.800;9.534;2023-01-01T05:02:14;98883.03;;;11.60;40.01
63321;BME280;49449;48.800;9.534;2023-01-01T05:04:42;98876.78;;;11.85;39.79
63321;BME280;49449;48.800;9.534;2023-01-01T05:07:09;98890.63;;;11.68;39.91
63321;BME280;49449;48.800;9.534;2023-01-01T05:09:38;98891.06;;;11.65;40.08
63321;BME280;49449;48.800;9.534;2023-01-01T05:12:06;98892.66;;;11.85;39.56
63321;BME280;49449;48.800;9.534;2023-01-01T05:14:34;98900.63;;;11.66;39.85
63321;BME280;49449;48.800;9.534;2023-01-01T05:17:01;98908.41;;;11.80;39.76
63321;BME280;49449;48.800;9.534;2023-01-01T05:19:29;98912.56;;;11.57;40.34
63321;BME280;49449;48.800;9.534;2023-01-01T05:21:57;98910.56;;;11.71;39.39
63321;BME280;49449;48.800;9.534;2023-01-01T05:24:25;98915.16;;;11.75;39.26
63321;BME280;49449;48.800;9.534;2023-01-01T05:26:54;98915.78;;;11.89;38.92
63321;BME280;49449;48.800;9.534;2023-01-01T05:29:22;98921.72;;;11.73;39.27
63321;BME280;49449;48.800;9.534;2023-01-01T05:31:50;98911.03;;;11.80;39.20
63321;BME280;49449;48.800;9.534;2023-01-01T05:34:18;98917.66;;;11.59;39.37
63321;BME280;49449;48.800;9.534;2023-01-01T05:36:46;98903.50;;;11.65;39.27
63321;BME280;49449;48.800;9.534;2023-01-01T05:39:13;98918.72;;;11.39;39.83
63321;BME280;49449;48.800;9.534;2023-01-01T05:41:41;98919.91;;;11.25;39.96
63321;BME280;49449;48.800;9.534;2023-01-01T05:44:10;98909.06;;;11.45;39.56
63321;BME280;49449;48.800;9.534;2023-01-01T05:46:38;98911.66;;;11.63;39.33
63321;BME280;49449;48.800;9.534;2023-01-01T05:49:08;98907.91;;;11.41;39.40
63321;BME280;49449;48.800;9.534;2023-01-01T05:51:36;98915.34;;;11.62;38.94
63321;BME280;49449;48.800;9.534;2023-01-01T05:54:03;98921.41;;;11.51;39.22
63321;BME280;49449;48.800;9.534;2023-01-01T05:56:31;98927.38;;;11.28;39.51
63321;BME280;49449;48.800;9.534;2023-01-01T05:58:59;98930.09;;;11.40;39.23
63321;BME280;49449;48.800;9.534;2023-01-01T06:01:30;98914.81;;;11.42;39.01
63321;BME280;49449;48.800;9.534;2023-01-01T06:03:58;98933.75;;;11.38;39.37
63321;BME280;49449;48.800;9.534;2023-01-01T06:06:28;98927.59;;;11.26;39.62
63321;BME280;49449;48.800;9.534;2023-01-01T06:08:57;98927.09;;;11.36;39.63
63321;BME280;49449;48.800;9.534;2023-01-01T06:11:25;98933.31;;;11.72;38.91
63321;BME280;49449;48.800;9.534;2023-01-01T06:13:55;98926.69;;;11.51;39.19
63321;BME280;49449;48.800;9.534;2023-01-01T06:16:24;98925.66;;;11.52;39.04
63321;BME280;49449;48.800;9.534;2023-01-01T06:18:53;98932.63;;;11.65;38.88
63321;BME280;49449;48.800;9.534;2023-01-01T06:21:23;98932.38;;;11.85;38.73
63321;BME280;49449;48.800;9.534;2023-01-01T06:23:51;98927.38;;;11.28;39.52
63321;BME280;49449;48.800;9.534;2023-01-01T06:26:21;98929.31;;;11.69;39.04
63321;BME280;49449;48.800;9.534;2023-01-01T06:28:49;98942.47;;;11.57;39.01
63321;BME280;49449;48.800;9.534;2023-01-01T06:31:19;98934.88;;;11.80;38.57
63321;BME280;49449;48.800;9.534;2023-01-01T06:33:47;98937.28;;;11.02;39.79
63321;BME280;49449;48.800;9.534;2023-01-01T06:36:18;98951.09;;;11.53;39.11
63321;BME280;49449;48.800;9.534;2023-01-01T06:38:48;98935.09;;;11.78;38.55
63321;BME280;49449;48.800;9.534;2023-01-01T06:41:18;98940.19;;;11.61;38.93
63321;BME280;49449;48.800;9.534;2023-01-01T06:43:46;98946.13;;;11.45;39.08
63321;BME280;49449;48.800;9.534;2023-01-01T06:46:17;98951.50;;;11.19;39.62
63321;BME280;49449;48.800;9.534;2023-01-01T06:48:46;98943.88;;;11.60;38.71
63321;BME280;49449;48.800;9.534;2023-01-01T06:51:18;98944.84;;;11.47;39.24
63321;BME280;49449;48.800;9.534;2023-01-01T06:53:46;98937.28;;;11.51;39.18
63321;BME280;49449;48.800;9.534;2023-01-01T06:56:15;98939.41;;;11.61;39.01
63321;BME280;49449;48.800;9.534;2023-01-01T06:58:43;98955.97;;;11.37;39.70
63321;BME280;49449;48.800;9.534;2023-01-01T07:01:15;98955.34;;;11.54;39.42
63321;BME280;49449;48.800;9.534;2023-01-01T07:03:48;98956.28;;;11.60;39.25
63321;BME280;49449;48.800;9.534;2023-01-01T07:06:17;98963.44;;;11.59;39.31
63321;BME280;49449;48.800;9.534;2023-01-01T07:08:45;98968.09;;;11.75;38.95
63321;BME280;49449;48.800;9.534;2023-01-01T07:11:13;98971.31;;;11.47;39.48
63321;BME280;49449;48.800;9.534;2023-01-01T07:13:41;98968.63;;;11.17;40.08
63321;BME280;49449;48.800;9.534;2023-01-01T07:16:09;98981.69;;;11.12;40.24
63321;BME280;49449;48.800;9.534;2023-01-01T07:18:38;98975.75;;;11.16;40.08
63321;BME280;49449;48.800;9.534;2023-01-01T07:21:22;98965.38;;;11.15;40.03
63321;BME280;49449;48.800;9.534;2023-01-01T07:23:54;98977.28;;;11.43;39.60
63321;BME280;49449;48.800;9.534;2023-01-01T07:26:23;98979.78;;;11.37;39.50
63321;BME280;49449;48.800;9.534;2023-01-01T07:28:51;98979.50;;;11.27;39.66
63321;BME280;49449;48.800;9.534;2023-01-01T07:31:19;98989.59;;;11.49;39.32
63321;BME280;49449;48.800;9.534;2023-01-01T07:33:46;98994.81;;;11.37;39.44
63321;BME280;49449;48.800;9.534;2023-01-01T07:36:14;98988.88;;;11.42;39.40
63321;BME280;49449;48.800;9.534;2023-01-01T07:38:43;98983.97;;;11.45;39.33
63321;BME280;49449;48.800;9.534;2023-01-01T07:41:11;98995.06;;;11.35;39.49
63321;BME280;49449;48.800;9.534;2023-01-01T07:43:38;98996.22;;;11.21;39.72
63321;BME280;49449;48.800;9.534;2023-01-01T07:46:09;98999.47;;;11.05;40.20
63321;BME280;49449;48.800;9.534;2023-01-01T07:48:37;98998.59;;;11.29;39.72
63321;BME280;49449;48.800;9.534;2023-01-01T07:51:05;99003.81;;;11.36;39.56
63321;BME280;49449;48.800;9.534;2023-01-01T07:53:33;99003.28;;;11.46;39.46
63321;BME280;49449;48.800;9.534;2023-01-01T07:56:02;99012.69;;;11.42;39.49
63321;BME280;49449;48.800;9.534;2023-01-01T07:58:30;99015.06;;;11.50;39.21
63321;BME280;49449;48.800;9.534;2023-01-01T08:00:58;99017.19;;;11.41;39.60
63321;BME280;49449;48.800;9.534;2023-01-01T08:03:25;99019.72;;;11.66;38.93
63321;BME280;49449;48.800;9.534;2023-01-01T08:05:53;99014.94;;;11.75;38.72
63321;BME280;49449;48.800;9.534;2023-01-01T08:08:21;99020.00;;;11.76;38.70
63321;BME280;49449;48.800;9.534;2023-01-01T08:10:48;99016.63;;;11.88;38.53
63321;BME280;49449;48.800;9.534;2023-01-01T08:13:17;99016.59;;;12.06;38.23
63321;BME280;49449;48.800;9.534;2023-01-01T08:15:45;99028.91;;;12.12;38.16
63321;BME280;49449;48.800;9.534;2023-01-01T08:18:13;99034.44;;;12.41;37.76
63321;BME280;49449;48.800;9.534;2023-01-01T08:20:40;99044.81;;;12.55;37.69
63321;BME280;49449;48.800;9.534;2023-01-01T08:23:08;99041.47;;;12.59;37.69
63321;BME280;49449;48.800;9.534;2023-01-01T08:25:36;99045.16;;;12.58;37.78
63321;BME280;49449;48.800;9.534;2023-01-01T08:28:04;99049.22;;;12.61;37.63
63321;BME280;49449;48.800;9.534;2023-01-01T08:30:33;99047.94;;;12.63;37.58
63321;BME280;49449;48.800;9.534;2023-01-01T08:33:00;99051.38;;;12.64;37.60
63321;BME280;49449;48.800;9.534;2023-01-01T08:35:28;99048.72;;;12.64;37.74
63321;BME280;49449;48.800;9.534;2023-01-01T08:37:56;99049.44;;;12.71;37.60
63321;BME280;49449;48.800;9.534;2023-01-01T08:40:23;99055.22;;;12.80;37.89
63321;BME280;49449;48.800;9.534;2023-01-01T08:42:51;99051.22;;;12.89;37.61
63321;BME280;49449;48.800;9.534;2023-01-01T08:45:19;99056.41;;;12.96;37.41
63321;BME280;49449;48.800;9.534;2023-01-01T08:47:48;99060.78;;;13.02;37.33
63321;BME280;49449;48.800;9.534;2023-01-01T08:50:16;99063.19;;;13.15;37.02
63321;BME280;49449;48.800;9.534;2023-01-01T08:52:44;99055.22;;;13.39;37.14
63321;BME280;49449;48.800;9.534;2023-01-01T08:55:11;99054.47;;;13.79;36.92
63321;BME280;49449;48.800;9.534;2023-01-01T08:57:39;99063.94;;;14.78;34.93
63321;BME280;49449;48.800;9.534;2023-01-01T09:00:08;99060.53;;;15.00;34.37
63321;BME280;49449;48.800;9.534;2023-01-01T09:02:36;99076.38;;;15.28;33.88
63321;BME280;49449;48.800;9.534;2023-01-01T09:05:06;99084.84;;;15.64;33.18
63321;BME280;49449;48.800;9.534;2023-01-01T09:07:34;99084.09;;;15.69;33.23
63321;BME280;49449;48.800;9.534;2023-01-01T09:10:03;99078.28;;;15.72;32.80
63321;BME280;49449;48.800;9.534;2023-01-01T09:12:31;99072.66;;;16.45;31.76
63321;BME280;49449;48.800;9.534;2023-01-01T09:14:58;99081.09;;;17.39;30.49
63321;BME280;49449;48.800;9.534;2023-01-01T09:17:26;99067.75;;;18.23;29.81
63321;BME280;49449;48.800;9.534;2023-01-01T09:19:54;99066.69;;;18.90;28.81
63321;BME280;49449;48.800;9.534;2023-01-01T09:22:23;99069.41;;;18.80;28.97
63321;BME280;49449;48.800;9.534;2023-01-01T09:24:51;99065.56;;;17.99;28.48
63321;BME280;49449;48.800;9.534;2023-01-01T09:27:18;99069.78;;;17.21;30.10
63321;BME280;49449;48.800;9.534;2023-01-01T09:29:46;99067.28;;;16.72;30.67
63321;BME280;49449;48.800;9.534;2023-01-01T09:32:14;99061.88;;;16.35;31.32
63321;BME280;49449;48.800;9.534;2023-01-01T09:34:41;99071.44;;;16.03;31.56
63321;BME280;49449;48.800;9.534;2023-01-01T09:37:13;99086.25;;;15.72;32.49
63321;BME280;49449;48.800;9.534;2023-01-01T09:39:41;99086.50;;;15.48;32.69
63321;BME280;49449;48.800;9.534;2023-01-01T09:42:24;99081.84;;;15.22;33.22
63321;BME280;49449;48.800;9.534;2023-01-01T09:45:11;99073.47;;;15.13;33.36
63321;BME280;49449;48.800;9.534;2023-01-01T09:47:43;99079.88;;;14.95;33.77
63321;BME280;49449;48.800;9.534;2023-01-01T09:50:14;99075.22;;;14.85;34.03
63321;BME280;49449;48.800;9.534;2023-01-01T09:52:46;99073.25;;;14.81;34.04
63321;BME280;49449;48.800;9.534;2023-01-01T09:55:23;99069.16;;;14.73;34.12
63321;BME280;49449;48.800;9.534;2023-01-01T09:57:53;99064.97;;;14.60;34.23
63321;BME280;49449;48.800;9.534;2023-01-01T10:00:22;99068.19;;;14.62;34.51
63321;BME280;49449;48.800;9.534;2023-01-01T10:03:04;99078.75;;;14.57;34.26
63321;BME280;49449;48.800;9.534;2023-01-01T10:05:44;99078.84;;;14.62;34.79
63321;BME280;49449;48.800;9.534;2023-01-01T10:08:22;99069.78;;;14.63;34.79
63321;BME280;49449;48.800;9.534;2023-01-01T10:11:04;99080.53;;;14.85;34.55
63321;BME280;49449;48.800;9.534;2023-01-01T10:13:38;99081.13;;;15.87;32.59
63321;BME280;49449;48.800;9.534;2023-01-01T10:16:11;99073.03;;;16.26;32.33
63321;BME280;49449;48.800;9.534;2023-01-01T10:18:44;99069.56;;;16.58;32.00
63321;BME280;49449;48.800;9.534;2023-01-01T10:21:16;99076.84;;;16.68;31.66
63321;BME280;49449;48.800;9.534;2023-01-01T10:23:48;99075.56;;;17.08;31.19
63321;BME280;49449;48.800;9.534;2023-01-01T10:26:22;99071.69;;;16.89;31.18
63321;BME280;49449;48.800;9.534;2023-01-01T10:28:55;99067.16;;;16.57;31.44
63321;BME280;49449;48.800;9.534;2023-01-01T10:31:30;99071.44;;;16.31;33.45
63321;BME280;49449;48.800;9.534;2023-01-01T10:34:01;99074.09;;;16.03;34.37
63321;BME280;49449;48.800;9.534;2023-01-01T10:36:30;99076.97;;;15.75;34.28
63321;BME280;49449;48.800;9.534;2023-01-01T10:38:58;99072.81;;;15.62;34.01
63321;BME280;49449;48.800;9.534;2023-01-01T10:41:27;99069.91;;;15.63;33.29
63321;BME280;49449;48.800;9.534;2023-01-01T10:43:55;99063.72;;;15.58;33.02
63321;BME280;49449;48.800;9.534;2023-01-01T10:46:23;99067.22;;;15.41;33.58
63321;BME280;49449;48.800;9.534;2023-01-01T10:49:06;99066.19;;;15.42;33.72
63321;BME280;49449;48.800;9.534;2023-01-01T10:51:37;99071.72;;;15.58;33.92
63321;BME280;49449;48.800;9.534;2023-01-01T10:54:25;99067.50;;;15.62;34.10
63321;BME280;49449;48.800;9.534;2023-01-01T10:56:58;99060.38;;;15.67;33.70
63321;BME280;49449;48.800;9.534;2023-01-01T10:59:33;99068.16;;;15.74;33.46
63321;BME280;49449;48.800;9.534;2023-01-01T11:02:19;99063.22;;;15.83;33.51
63321;BME280;49449;48.800;9.534;2023-01-01T11:04:48;99064.06;;;15.88;32.99
63321;BME280;49449;48.800;9.534;2023-01-01T11:07:26;99048.94;;;15.94;32.88
63321;BME280;49449;48.800;9.534;2023-01-01T11:09:58;99054.31;;;15.99;32.81
63321;BME280;49449;48.800;9.534;2023-01-01T11:12:33;99048.94;;;16.16;32.74
63321;BME280;49449;48.800;9.534;2023-01-01T11:15:34;99044.28;;;16.34;32.79
63321;BME280;49449;48.800;9.534;2023-01-01T11:18:05;99045.97;;;16.45;32.88
63321;BME280;49449;48.800;9.534;2023-01-01T11:20:33;99038.31;;;16.54;32.95
63321;BME280;49449;48.800;9.534;2023-01-01T11:23:17;99035.41;;;16.55;32.59
63321;BME280;49449;48.800;9.534;2023-01-01T11:25:57;99032.53;;;16.62;32.59
63321;BME280;49449;48.800;9.534;2023-01-01T11:28:27;99028.06;;;16.73;32.35
63321;BME280;49449;48.800;9.534;2023-01-01T11:31:00;99022.69;;;16.67;32.81
63321;BME280;49449;48.800;9.534;2023-01-01T11:33:30;99020.78;;;16.58;32.67
63321;BME280;49449;48.800;9.534;2023-01-01T11:35:59;99009.59;;;16.66;32.48
63321;BME280;49449;48.800;9.534;2023-01-01T11:38:27;99007.56;;;16.78;32.27
63321;BME280;49449;48.800;9.534;2023-01-01T11:41:01;99008.41;;;16.84;31.92
63321;BME280;49449;48.800;9.534;2023-01-01T11:43:37;99001.84;;;16.97;31.61
63321;BME280;49449;48.800;9.534;2023-01-01T11:46:08;99000.03;;;17.08;32.11
63321;BME280;49449;48.800;9.534;2023-01-01T11:48:41;99005.97;;;17.20;31.69
63321;BME280;49449;48.800;9.534;2023-01-01T11:51:26;98998.75;;;17.26;31.22
63321;BME280;49449;48.800;9.534;2023-01-01T11:54:08;98998.81;;;17.36;31.10
63321;BME280;49449;48.800;9.534;2023-01-01T11:56:36;98987.88;;;17.37;28.81
63321;BME280;49449;48.800;9.534;2023-01-01T11:59:11;98990.81;;;17.36;29.14
63321;BME280;49449;48.800;9.534;2023-01-01T12:01:44;98989.28;;;16.97;27.36
63321;BME280;49449;48.800;9.534;2023-01-01T12:04:18;98981.81;;;16.99;28.22
63321;BME280;49449;48.800;9.534;2023-01-01T12:06:52;98981.75;;;16.89;27.31
63321;BME280;49449;48.800;9.534;2023-01-01T12:09:23;98977.53;;;16.93;27.11
63321;BME280;49449;48.800;9.534;2023-01-01T12:11:55;98965.09;;;16.72;28.09
63321;BME280;49449;48.800;9.534;2023-01-01T12:14:31;98966.09;;;17.03;28.38
63321;BME280;49449;48.800;9.534;2023-01-01T12:17:03;98965.56;;;17.06;27.16
63321;BME280;49449;48.800;9.534;2023-01-01T12:19:37;98955.19;;;17.10;27.52
63321;BME280;49449;48.800;9.534;2023-01-01T12:22:14;98962.47;;;17.30;28.09
63321;BME280;49449;48.800;9.534;2023-01-01T12:24:43;98964.88;;;17.36;27.23
63321;BME280;49449;48.800;9.534;2023-01-01T12:27:16;98962.22;;;17.36;26.95
63321;BME280;49449;48.800;9.534;2023-01-01T12:30:03;98948.09;;;17.41;27.54
63321;BME280;49449;48.800;9.534;2023-01-01T12:33:05;98949.13;;;17.35;27.35
63321;BME280;49449;48.800;9.534;2023-01-01T12:35:51;98941.66;;;17.37;27.51
63321;BME280;49449;48.800;9.534;2023-01-01T12:38:29;98955.28;;;17.30;26.56
63321;BME280;49449;48.800;9.534;2023-01-01T12:41:06;98953.06;;;17.17;27.05
63321;BME280;49449;48.800;9.534;2023-01-01T12:43:41;98942.38;;;17.12;27.28
63321;BME280;49449;48.800;9.534;2023-01-01T12:46:29;98940.47;;;17.07;27.37
63321;BME280;49449;48.800;9.534;2023-01-01T12:49:10;98947.38;;;16.98;27.20
63321;BME280;49449;48.800;9.534;2023-01-01T12:51:48;98943.44;;;17.06;27.04
63321;BME280;49449;48.800;9.534;2023-01-01T12:54:42;98936.97;;;16.96;27.54
63321;BME280;49449;48.800;9.534;2023-01-01T12:57:23;98934.19;;;16.76;27.38
63321;BME280;49449;48.800;9.534;2023-01-01T12:59:55;98939.34;;;16.93;27.65
63321;BME280;49449;48.800;9.534;2023-01-01T13:02:27;98926.28;;;16.96;27.61
63321;BME280;49449;48.800;9.534;2023-01-01T13:05:00;98937.25;;;17.00;27.58
63321;BME280;49449;48.800;9.534;2023-01-01T13:07:34;98935.34;;;16.90;27.58
63321;BME280;49449;48.800;9.534;2023-01-01T13:10:15;98924.06;;;16.78;27.64
63321;BME280;49449;48.800;9.534;2023-01-01T13:12:45;98924.38;;;16.87;27.76
63321;BME280;49449;48.800;9.534;2023-01-01T13:15:41;98926.53;;;16.84;28.10
63321;BME280;49449;48.800;9.534;2023-01-01T13:18:26;98928.03;;;16.70;28.02
63321;BME280;49449;48.800;9.534;2023-01-01T13:20:58;98930.38;;;16.61;27.82
63321;BME280;49449;48.800;9.534;2023-01-01T13:23:50;98931.28;;;16.40;28.06